createdAt,value
2022-11-23T00:00:22.665Z,991.88
2022-11-23T00:01:22.630Z,991.92
2022-11-23T00:02:22.639Z,991.96
2022-11-23T00:03:22.534Z,991.96
2022-11-23T00:04:22.505Z,992.03
2022-11-23T00:05:22.526Z,991.98
2022-11-23T00:06:22.427Z,991.95
2022-11-23T00:07:22.387Z,991.98
2022-11-23T00:08:22.332Z,991.99
2022-11-23T00:09:22.287Z,991.99
2022-11-23T00:10:22.241Z,991.99
2022-11-23T00:11:22.197Z,991.99
2022-11-23T00:12:22.168Z,991.96
2022-11-23T00:13:22.112Z,992.00
2022-11-23T00:14:22.072Z,991.99
2022-11-23T00:15:22.031Z,992.00
2022-11-23T00:16:21.988Z,991.99
2022-11-23T00:17:21.958Z,992.04
2022-11-23T00:18:21.905Z,992.02
2022-11-23T00:19:21.856Z,992.36
2022-11-23T00:20:21.818Z,992.06
2022-11-23T00:21:21.773Z,992.39
2022-11-23T00:22:21.740Z,992.06
2022-11-23T00:23:21.698Z,992.06
2022-11-23T00:24:21.653Z,992.05
2022-11-23T00:25:21.605Z,992.05
2022-11-23T00:26:21.571Z,992.23
2022-11-23T00:27:21.523Z,992.04
2022-11-23T00:28:21.481Z,992.12
2022-11-23T00:29:21.447Z,992.09
2022-11-23T00:30:21.396Z,992.03
2022-11-23T00:31:21.349Z,992.09
2022-11-23T00:32:21.309Z,992.08
2022-11-23T00:33:21.265Z,992.42
2022-11-23T00:34:21.262Z,992.45
2022-11-23T00:35:21.199Z,992.43
2022-11-23T00:36:21.147Z,992.50
2022-11-23T00:37:21.097Z,992.43
2022-11-23T00:38:21.057Z,992.44
2022-11-23T00:39:21.014Z,992.19
2022-11-23T00:40:20.974Z,992.18
2022-11-23T00:41:20.940Z,992.50
2022-11-23T00:42:20.894Z,992.14
2022-11-23T00:43:20.846Z,992.18
2022-11-23T00:44:20.803Z,992.19
2022-11-23T00:45:20.759Z,992.48
2022-11-23T00:46:20.723Z,992.21
2022-11-23T00:47:20.691Z,992.18
2022-11-23T00:48:20.637Z,992.51
2022-11-23T00:49:20.592Z,992.53
2022-11-23T00:50:20.554Z,992.55
2022-11-23T00:51:20.520Z,992.47
2022-11-23T00:52:20.469Z,992.53
2022-11-23T00:53:20.424Z,992.48
2022-11-23T00:54:20.388Z,992.20
2022-11-23T00:55:20.342Z,992.53
2022-11-23T00:56:20.301Z,992.23
2022-11-23T00:57:20.269Z,992.20
2022-11-23T00:58:20.220Z,992.20
2022-11-23T00:59:20.173Z,992.47
2022-11-23T01:00:20.137Z,992.52
2022-11-23T01:01:20.140Z,992.24
2022-11-23T01:02:20.050Z,992.58
2022-11-23T01:03:20.015Z,992.60
2022-11-23T01:04:19.979Z,992.30
2022-11-23T01:05:19.923Z,992.30
2022-11-23T01:06:19.884Z,992.28
2022-11-23T01:07:19.935Z,992.69
2022-11-23T01:08:19.797Z,992.33
2022-11-23T01:09:19.751Z,992.33
2022-11-23T01:10:19.726Z,992.34
2022-11-23T01:11:19.678Z,992.39
2022-11-23T01:12:28.850Z,992.73
2022-11-23T01:13:19.582Z,992.67
2022-11-23T01:14:19.544Z,992.70
2022-11-23T01:15:19.498Z,992.40
2022-11-23T01:16:23.836Z,992.41
2022-11-23T01:17:19.416Z,992.45
2022-11-23T01:18:19.374Z,992.44
2022-11-23T01:19:19.628Z,992.46
2022-11-23T01:20:19.291Z,992.77
2022-11-23T01:21:19.245Z,992.48
2022-11-23T01:22:19.233Z,992.47
2022-11-23T01:23:19.162Z,992.41
2022-11-23T01:24:19.128Z,992.46
2022-11-23T01:25:19.080Z,992.83
2022-11-23T01:26:19.039Z,992.51
2022-11-23T01:27:19.008Z,992.56
2022-11-23T01:28:18.957Z,992.58
2022-11-23T01:29:18.923Z,992.87
2022-11-23T01:30:18.876Z,992.53
2022-11-23T01:31:18.826Z,992.74
2022-11-23T01:32:18.792Z,992.53
2022-11-23T01:33:18.743Z,992.54
2022-11-23T01:34:18.707Z,992.56
2022-11-23T01:35:18.668Z,992.61
2022-11-23T01:36:18.625Z,992.67
2022-11-23T01:37:18.575Z,992.55
2022-11-23T01:38:18.675Z,992.55
2022-11-23T01:39:18.511Z,992.86
2022-11-23T01:40:18.454Z,992.54
2022-11-23T01:41:18.960Z,992.53
2022-11-23T01:42:18.368Z,992.54
2022-11-23T01:43:18.324Z,992.58
2022-11-23T01:44:18.300Z,992.59
2022-11-23T01:45:18.245Z,992.52
2022-11-23T01:46:18.203Z,992.53
2022-11-23T01:47:18.155Z,992.59
2022-11-23T01:48:18.121Z,992.57
2022-11-23T01:49:18.073Z,992.86
2022-11-23T01:50:18.050Z,992.59
2022-11-23T01:51:17.989Z,992.60
2022-11-23T01:52:17.951Z,992.57
2022-11-23T01:53:17.909Z,992.87
2022-11-23T01:54:17.868Z,992.58
2022-11-23T01:55:17.829Z,992.58
2022-11-23T01:56:17.794Z,992.90
2022-11-23T01:57:17.819Z,992.71
2022-11-23T01:58:17.699Z,992.82
2022-11-23T02:26:57.927Z,992.73
2022-11-23T02:27:57.880Z,992.77
2022-11-23T02:28:57.837Z,992.78
2022-11-23T02:29:57.792Z,992.75
2022-11-23T02:30:57.754Z,992.79
2022-11-23T02:31:57.708Z,992.80
2022-11-23T02:32:57.682Z,992.72
2022-11-23T02:33:57.627Z,992.79
2022-11-23T02:34:57.585Z,992.78
2022-11-23T02:35:57.541Z,992.73
2022-11-23T02:36:57.504Z,992.77
2022-11-23T02:37:57.481Z,992.75
2022-11-23T02:38:57.417Z,992.73
2022-11-23T02:39:57.373Z,992.74
2022-11-23T02:40:57.333Z,992.75
2022-11-23T02:41:57.289Z,992.79
2022-11-23T02:42:57.270Z,992.84
2022-11-23T02:43:57.218Z,992.85
2022-11-23T02:44:57.169Z,992.79
2022-11-23T02:45:57.122Z,992.79
2022-11-23T02:46:57.104Z,992.83
2022-11-23T02:47:57.039Z,992.76
2022-11-23T02:48:57.005Z,992.81
2022-11-23T02:49:56.970Z,992.81
2022-11-23T02:50:56.915Z,992.88
2022-11-23T02:51:56.871Z,993.16
2022-11-23T02:52:56.833Z,992.86
2022-11-23T02:53:56.791Z,992.83
2022-11-23T02:54:56.757Z,992.82
2022-11-23T02:55:56.718Z,992.85
2022-11-23T02:56:56.666Z,992.81
2022-11-23T02:57:56.627Z,992.88
2022-11-23T02:58:56.580Z,992.85
2022-11-23T02:59:56.536Z,992.90
2022-11-23T03:00:56.518Z,992.87
2022-11-23T03:01:56.481Z,993.22
2022-11-23T03:02:56.424Z,992.96
2022-11-23T03:03:56.368Z,992.91
2022-11-23T03:04:56.338Z,992.93
2022-11-23T03:05:56.286Z,992.91
2022-11-23T03:06:56.250Z,992.96
2022-11-23T03:07:56.217Z,993.02
2022-11-23T03:08:56.171Z,992.99
2022-11-23T03:09:56.119Z,993.00
2022-11-23T03:10:56.080Z,992.95
2022-11-23T03:11:56.036Z,992.99
2022-11-23T03:12:56.001Z,992.98
2022-11-23T03:13:55.961Z,993.02
2022-11-23T03:14:55.912Z,993.01
2022-11-23T03:15:55.867Z,993.02
2022-11-23T03:16:55.828Z,993.03
2022-11-23T03:17:55.788Z,993.04
2022-11-23T03:18:55.746Z,992.97
2022-11-23T03:19:55.709Z,993.01
2022-11-23T03:20:55.660Z,992.99
2022-11-23T03:21:55.616Z,993.02
2022-11-23T03:22:55.573Z,992.99
2022-11-23T03:23:55.530Z,992.97
2022-11-23T03:24:55.490Z,993.00
2022-11-23T03:25:55.461Z,993.00
2022-11-23T03:26:55.425Z,992.96
2022-11-23T03:27:55.364Z,992.95
2022-11-23T03:28:55.326Z,992.99
2022-11-23T03:29:55.280Z,992.99
2022-11-23T03:30:55.340Z,993.00
2022-11-23T03:31:55.196Z,993.02
2022-11-23T03:32:55.164Z,992.99
2022-11-23T03:33:55.110Z,992.99
2022-11-23T03:34:55.073Z,993.01
2022-11-23T03:35:55.024Z,993.00
2022-11-23T03:36:54.987Z,993.05
2022-11-23T03:37:54.945Z,993.04
2022-11-23T03:38:54.907Z,993.00
2022-11-23T03:39:54.861Z,993.04
2022-11-23T03:40:54.814Z,993.02
2022-11-23T03:41:54.787Z,992.98
2022-11-23T03:42:54.729Z,993.00
2022-11-23T03:43:54.692Z,992.96
2022-11-23T03:44:54.645Z,993.00
2022-11-23T03:45:54.605Z,993.01
2022-11-23T03:46:54.560Z,993.01
2022-11-23T03:47:54.564Z,993.03
2022-11-23T03:48:54.511Z,992.99
2022-11-23T03:49:54.437Z,992.99
2022-11-23T03:50:54.393Z,992.98
2022-11-23T03:51:54.353Z,992.98
2022-11-23T03:52:54.313Z,993.00
2022-11-23T03:53:54.270Z,992.98
2022-11-23T03:54:54.234Z,992.99
2022-11-23T03:55:54.192Z,992.98
2022-11-23T03:56:54.142Z,992.99
2022-11-23T03:57:54.111Z,992.97
2022-11-23T03:58:54.055Z,993.01
2022-11-23T03:59:54.016Z,993.01
2022-11-23T04:00:54.028Z,993.03
2022-11-23T04:01:53.937Z,993.01
2022-11-23T04:02:53.889Z,993.01
2022-11-23T04:03:53.847Z,993.01
2022-11-23T04:04:53.803Z,993.07
2022-11-23T04:05:53.770Z,993.35
2022-11-23T04:06:53.726Z,993.00
2022-11-23T04:07:53.678Z,993.05
2022-11-23T04:08:56.272Z,993.09
2022-11-23T04:09:53.600Z,993.05
2022-11-23T04:10:53.559Z,993.07
2022-11-23T04:11:53.515Z,993.04
2022-11-23T04:12:53.465Z,993.06
2022-11-23T04:13:53.426Z,993.04
2022-11-23T04:14:53.382Z,993.06
2022-11-23T04:15:53.343Z,993.07
2022-11-23T04:16:53.305Z,993.05
2022-11-23T04:17:53.258Z,993.05
2022-11-23T04:18:53.210Z,993.06
2022-11-23T04:19:53.175Z,993.11
2022-11-23T04:20:53.126Z,993.07
2022-11-23T04:21:53.088Z,993.06
2022-11-23T04:22:53.055Z,993.04
2022-11-23T04:23:53.001Z,993.03
2022-11-23T04:24:52.957Z,993.04
2022-11-23T04:25:52.918Z,993.03
2022-11-23T04:26:52.876Z,993.04
2022-11-23T04:27:52.849Z,993.01
2022-11-23T04:28:52.788Z,993.05
2022-11-23T04:29:52.752Z,993.05
2022-11-23T04:30:52.733Z,993.04
2022-11-23T04:31:52.663Z,993.24
2022-11-23T04:32:52.623Z,993.04
2022-11-23T04:33:52.591Z,993.02
2022-11-23T04:34:52.532Z,993.00
2022-11-23T04:35:52.491Z,993.31
2022-11-23T04:36:52.448Z,993.02
2022-11-23T04:37:52.411Z,993.00
2022-11-23T04:38:52.361Z,992.94
2022-11-23T04:39:52.338Z,992.98
2022-11-23T04:40:52.276Z,992.95
2022-11-23T04:41:52.237Z,992.97
2022-11-23T04:42:52.194Z,992.96
2022-11-23T04:43:52.157Z,992.96
2022-11-23T04:44:52.108Z,992.99
2022-11-23T04:45:52.086Z,993.00
2022-11-23T04:46:52.022Z,993.11
2022-11-23T04:47:51.983Z,993.04
2022-11-23T04:48:51.939Z,992.97
2022-11-23T04:49:51.898Z,993.04
2022-11-23T04:50:55.457Z,993.01
2022-11-23T04:51:51.827Z,993.00
2022-11-23T04:52:51.778Z,993.02
2022-11-23T04:53:51.736Z,993.03
2022-11-23T04:54:51.695Z,993.02
2022-11-23T04:55:51.642Z,993.01
2022-11-23T04:56:51.598Z,993.04
2022-11-23T04:57:51.561Z,993.02
2022-11-23T04:58:51.511Z,993.02
2022-11-23T04:59:51.473Z,993.02
2022-11-23T05:00:51.519Z,993.03
2022-11-23T05:01:51.392Z,993.06
2022-11-23T05:02:51.345Z,993.02
2022-11-23T05:03:51.305Z,993.03
2022-11-23T05:04:51.260Z,993.04
2022-11-23T05:05:51.218Z,993.06
2022-11-23T05:06:51.183Z,993.04
2022-11-23T05:07:51.171Z,993.04
2022-11-23T05:08:51.089Z,993.08
2022-11-23T05:09:51.056Z,993.13
2022-11-23T05:10:51.005Z,993.12
2022-11-23T05:11:50.985Z,993.15
2022-11-23T05:12:50.918Z,993.13
2022-11-23T05:13:50.882Z,993.12
2022-11-23T05:14:50.835Z,993.12
2022-11-23T05:15:50.796Z,993.14
2022-11-23T05:16:50.769Z,993.12
2022-11-23T05:17:54.042Z,993.10
2022-11-23T05:18:50.665Z,993.06
2022-11-23T05:19:50.627Z,993.15
2022-11-23T05:20:50.580Z,993.13
2022-11-23T05:21:50.542Z,993.06
2022-11-23T05:22:50.498Z,993.08
2022-11-23T05:23:50.471Z,993.08
2022-11-23T05:24:50.410Z,993.08
2022-11-23T05:25:50.371Z,993.12
2022-11-23T05:26:54.862Z,993.11
2022-11-23T05:27:50.286Z,993.18
2022-11-23T05:28:50.241Z,993.12
2022-11-23T05:29:50.218Z,993.13
2022-11-23T05:30:50.155Z,993.12
2022-11-23T05:31:50.117Z,993.16
2022-11-23T05:32:50.073Z,993.16
2022-11-23T05:33:50.058Z,993.22
2022-11-23T05:34:49.988Z,993.19
2022-11-23T05:35:49.950Z,993.24
2022-11-23T05:36:49.902Z,993.19
2022-11-23T05:37:49.865Z,993.52
2022-11-23T05:38:49.817Z,993.54
2022-11-23T05:39:49.789Z,993.28
2022-11-23T05:40:49.741Z,993.27
2022-11-23T05:41:49.693Z,993.25
2022-11-23T05:42:49.648Z,993.23
2022-11-23T05:43:49.609Z,993.24
2022-11-23T05:44:49.562Z,993.60
2022-11-23T05:45:49.521Z,993.25
2022-11-23T05:46:49.491Z,993.27
2022-11-23T05:47:49.450Z,993.51
2022-11-23T05:48:49.393Z,993.30
2022-11-23T05:49:49.357Z,993.25
2022-11-23T05:50:49.306Z,993.29
2022-11-23T05:51:49.272Z,993.30
2022-11-23T05:52:49.226Z,993.28
2022-11-23T05:53:49.194Z,993.25
2022-11-23T05:54:49.136Z,993.24
2022-11-23T05:55:49.097Z,993.27
2022-11-23T05:56:49.052Z,993.25
2022-11-23T05:57:49.013Z,993.25
2022-11-23T05:58:48.966Z,993.23
2022-11-23T05:59:48.941Z,993.27
2022-11-23T06:00:48.884Z,993.26
2022-11-23T06:01:48.850Z,993.27
2022-11-23T06:02:48.795Z,993.24
2022-11-23T06:03:48.839Z,993.31
2022-11-23T06:04:48.722Z,993.26
2022-11-23T06:05:48.682Z,993.24
2022-11-23T06:06:48.632Z,993.23
2022-11-23T06:07:48.651Z,993.24
2022-11-23T06:08:49.289Z,993.63
2022-11-23T06:09:48.503Z,993.23
2022-11-23T06:10:48.469Z,993.30
2022-11-23T06:11:48.416Z,993.26
2022-11-23T06:12:48.370Z,993.32
2022-11-23T06:13:48.329Z,993.32
2022-11-23T06:14:48.284Z,993.32
2022-11-23T06:15:48.245Z,993.30
2022-11-23T06:16:48.224Z,993.27
2022-11-23T06:17:48.162Z,993.27
2022-11-23T06:18:48.113Z,993.32
2022-11-23T06:19:48.082Z,993.33
2022-11-23T06:20:48.030Z,993.36
2022-11-23T06:21:50.565Z,993.68
2022-11-23T06:22:47.954Z,993.34
2022-11-23T06:23:47.906Z,993.33
2022-11-23T06:24:47.858Z,993.35
2022-11-23T06:25:47.818Z,993.37
2022-11-23T06:26:47.771Z,993.39
2022-11-23T06:27:47.733Z,993.38
2022-11-23T06:28:47.699Z,993.35
2022-11-23T06:29:47.650Z,993.35
2022-11-23T06:30:47.604Z,993.34
2022-11-23T06:31:47.563Z,993.36
2022-11-23T06:32:47.517Z,993.30
2022-11-23T06:33:47.486Z,993.29
2022-11-23T06:34:47.444Z,993.41
2022-11-23T06:35:47.396Z,993.31
2022-11-23T06:36:47.352Z,993.33
2022-11-23T06:37:47.310Z,993.24
2022-11-23T06:38:47.264Z,993.24
2022-11-23T06:39:47.220Z,993.27
2022-11-23T06:40:47.204Z,993.29
2022-11-23T06:41:47.139Z,993.23
2022-11-23T06:42:47.091Z,993.61
2022-11-23T06:43:47.051Z,993.44
2022-11-23T06:44:47.008Z,993.67
2022-11-23T06:45:46.969Z,993.66
2022-11-23T06:46:46.931Z,993.61
2022-11-23T06:47:46.882Z,993.28
2022-11-23T06:48:46.843Z,993.61
2022-11-23T06:49:46.802Z,993.24
2022-11-23T06:50:46.751Z,993.25
2022-11-23T06:51:46.722Z,993.26
2022-11-23T06:52:46.667Z,993.25
2022-11-23T06:53:46.627Z,993.30
2022-11-23T06:54:46.584Z,993.31
2022-11-23T06:55:46.541Z,993.33
2022-11-23T06:56:46.494Z,993.37
2022-11-23T06:57:46.468Z,993.37
2022-11-23T06:58:46.425Z,993.36
2022-11-23T06:59:46.378Z,993.32
2022-11-23T07:00:46.340Z,993.40
2022-11-23T07:01:46.325Z,993.36
2022-11-23T07:02:46.249Z,993.32
2022-11-23T07:03:46.229Z,993.38
2022-11-23T07:04:46.166Z,993.42
2022-11-23T07:05:46.120Z,993.44
2022-11-23T07:06:46.075Z,993.40
2022-11-23T07:07:46.059Z,993.43
2022-11-23T07:08:45.982Z,993.40
2022-11-23T07:09:45.944Z,993.43
2022-11-23T07:10:45.908Z,993.50
2022-11-23T07:11:45.859Z,993.44
2022-11-23T07:12:55.152Z,993.42
2022-11-23T07:13:45.779Z,993.40
2022-11-23T07:14:45.739Z,993.72
2022-11-23T07:15:45.689Z,993.80
2022-11-23T07:16:45.642Z,993.77
2022-11-23T07:17:45.602Z,993.72
2022-11-23T07:18:45.558Z,993.80
2022-11-23T07:19:45.530Z,993.45
2022-11-23T07:20:45.477Z,993.83
2022-11-23T07:21:45.433Z,993.50
2022-11-23T07:22:45.388Z,993.53
2022-11-23T07:23:45.345Z,993.52
2022-11-23T07:24:46.834Z,993.49
2022-11-23T07:25:45.262Z,993.52
2022-11-23T07:26:45.217Z,993.52
2022-11-23T07:27:45.175Z,993.49
2022-11-23T07:28:45.133Z,993.57
2022-11-23T07:29:45.091Z,993.59
2022-11-23T07:30:45.066Z,993.57
2022-11-23T07:31:45.008Z,993.57
2022-11-23T07:32:44.960Z,993.54
2022-11-23T07:33:44.925Z,993.58
2022-11-23T07:34:44.878Z,993.58
2022-11-23T07:35:44.839Z,993.93
2022-11-23T07:36:44.808Z,993.96
2022-11-23T07:37:44.754Z,993.62
2022-11-23T07:38:44.712Z,993.66
2022-11-23T07:40:00.148Z,993.60
2022-11-23T07:40:44.641Z,993.65
2022-11-23T07:41:44.841Z,993.69
2022-11-23T07:42:45.300Z,993.76
2022-11-23T07:43:44.498Z,994.04
2022-11-23T07:44:44.458Z,993.70
2022-11-23T07:45:44.416Z,993.76
2022-11-23T07:46:44.367Z,994.04
2022-11-23T07:47:44.337Z,994.08
2022-11-23T07:48:44.284Z,993.77
2022-11-23T07:49:44.246Z,993.79
2022-11-23T07:50:44.199Z,993.79
2022-11-23T07:51:44.157Z,993.82
2022-11-23T07:52:44.118Z,993.80
2022-11-23T07:53:44.087Z,993.87
2022-11-23T07:54:44.033Z,993.91
2022-11-23T07:55:44.005Z,993.90
2022-11-23T07:56:43.949Z,994.26
2022-11-23T07:57:43.909Z,994.30
2022-11-23T07:58:43.880Z,994.29
2022-11-23T07:59:43.821Z,993.97
2022-11-23T08:00:43.779Z,994.31
2022-11-23T08:01:46.392Z,994.01
2022-11-23T08:03:04.277Z,994.04
2022-11-23T08:03:43.686Z,994.10
2022-11-23T08:04:43.615Z,994.47
2022-11-23T08:05:43.568Z,994.15
2022-11-23T08:06:43.531Z,994.54
2022-11-23T08:07:43.534Z,994.19
2022-11-23T08:08:43.464Z,994.31
2022-11-23T08:09:43.402Z,994.36
2022-11-23T08:10:47.119Z,994.59
2022-11-23T08:11:43.318Z,994.24
2022-11-23T08:12:43.279Z,994.59
2022-11-23T08:13:43.237Z,994.61
2022-11-23T08:14:43.210Z,994.67
2022-11-23T08:15:43.157Z,994.36
2022-11-23T08:16:43.117Z,994.27
2022-11-23T08:17:43.073Z,994.29
2022-11-23T08:18:43.036Z,994.68
2022-11-23T08:19:42.996Z,994.35
2022-11-23T08:20:42.961Z,994.42
2022-11-23T08:21:42.924Z,994.79
2022-11-23T08:22:42.869Z,994.78
2022-11-23T08:23:42.830Z,994.77
2022-11-23T08:24:42.797Z,994.39
2022-11-23T08:25:42.752Z,994.38
2022-11-23T08:26:42.726Z,994.40
2022-11-23T08:27:42.674Z,994.36
2022-11-23T08:28:42.662Z,994.42
2022-11-23T08:29:42.595Z,994.68
2022-11-23T08:30:42.555Z,994.33
2022-11-23T08:31:42.517Z,994.35
2022-11-23T08:32:42.488Z,994.71
2022-11-23T08:33:42.435Z,994.38
2022-11-23T08:34:42.397Z,994.40
2022-11-23T08:35:42.357Z,994.38
2022-11-23T08:36:42.327Z,994.67
2022-11-23T08:37:42.285Z,994.71
2022-11-23T08:38:42.256Z,994.47
2022-11-23T08:39:42.207Z,994.53
2022-11-23T08:40:42.169Z,994.77
2022-11-23T08:41:42.125Z,994.52
2022-11-23T08:42:42.087Z,994.52
2022-11-23T08:43:42.057Z,994.87
2022-11-23T08:44:42.006Z,994.74
2022-11-23T08:45:41.969Z,994.87
2022-11-23T08:46:41.930Z,994.87
2022-11-23T08:47:41.889Z,994.54
2022-11-23T08:48:41.860Z,994.62
2022-11-23T08:49:41.826Z,994.92
2022-11-23T08:50:41.780Z,994.91
2022-11-23T08:51:45.618Z,994.86
2022-11-23T08:52:41.703Z,994.67
2022-11-23T08:53:41.661Z,994.57
2022-11-23T08:54:41.633Z,994.83
2022-11-23T08:55:41.584Z,994.47
2022-11-23T08:56:41.567Z,994.74
2022-11-23T08:57:41.507Z,994.82
2022-11-23T08:58:41.474Z,994.46
2022-11-23T08:59:41.431Z,994.47
2022-11-23T09:00:41.404Z,994.55
2022-11-23T09:01:41.382Z,994.44
2022-11-23T09:02:41.329Z,994.44
2022-11-23T09:03:41.294Z,994.45
2022-11-23T09:04:41.243Z,994.37
2022-11-23T09:05:41.220Z,994.41
2022-11-23T09:06:41.163Z,994.37
2022-11-23T09:07:41.174Z,994.35
2022-11-23T09:08:41.091Z,994.46
2022-11-23T09:09:41.093Z,994.41
2022-11-23T09:10:41.015Z,994.42
2022-11-23T09:11:40.981Z,994.33
2022-11-23T09:12:40.948Z,994.37
2022-11-23T09:13:40.898Z,994.42
2022-11-23T09:14:40.860Z,994.41
2022-11-23T09:15:40.837Z,994.48
2022-11-23T09:16:40.786Z,994.78
2022-11-23T09:17:40.760Z,994.46
2022-11-23T09:18:40.715Z,994.52
2022-11-23T09:19:40.666Z,994.54
2022-11-23T09:20:40.632Z,994.49
2022-11-23T09:21:40.592Z,994.60
2022-11-23T09:22:40.569Z,994.58
2022-11-23T09:23:40.515Z,995.03
2022-11-23T09:24:40.503Z,995.00
2022-11-23T09:25:40.443Z,994.56
2022-11-23T09:26:40.406Z,994.58
2022-11-23T09:27:40.370Z,994.57
2022-11-23T09:28:44.511Z,994.64
2022-11-23T09:29:40.285Z,994.60
2022-11-23T09:30:40.271Z,994.73
2022-11-23T09:31:40.210Z,994.56
2022-11-23T09:32:40.183Z,994.98
2022-11-23T09:33:40.141Z,994.93
2022-11-23T09:34:40.103Z,994.65
2022-11-23T09:35:43.743Z,994.81
2022-11-23T09:36:40.022Z,994.71
2022-11-23T09:37:39.981Z,994.69
2022-11-23T09:39:00.483Z,994.63
2022-11-23T09:39:39.907Z,994.64
2022-11-23T09:40:39.875Z,994.67
2022-11-23T09:41:39.846Z,994.84
2022-11-23T09:42:39.820Z,995.07
2022-11-23T09:43:39.761Z,994.75
2022-11-23T09:44:39.717Z,995.16
2022-11-23T09:45:39.683Z,995.05
2022-11-23T09:46:39.647Z,995.17
2022-11-23T09:47:39.630Z,994.89
2022-11-23T09:48:39.567Z,994.97
2022-11-23T09:49:39.528Z,995.12
2022-11-23T09:50:39.503Z,995.15
2022-11-23T09:51:39.464Z,994.99
2022-11-23T09:52:39.425Z,994.71
2022-11-23T09:53:39.394Z,994.75
2022-11-23T09:54:39.339Z,994.58
2022-11-23T09:55:39.296Z,994.60
2022-11-23T09:56:39.260Z,994.62
2022-11-23T09:57:39.222Z,994.84
2022-11-23T09:58:39.194Z,994.80
2022-11-23T09:59:39.148Z,994.59
2022-11-23T10:00:39.128Z,994.74
2022-11-23T10:01:39.151Z,994.77
2022-11-23T10:02:39.038Z,994.70
2022-11-23T10:03:42.680Z,995.02
2022-11-23T10:04:38.965Z,994.74
2022-11-23T10:05:38.913Z,994.68
2022-11-23T10:06:38.876Z,995.18
2022-11-23T10:07:38.879Z,995.09
2022-11-23T10:08:38.822Z,995.05
2022-11-23T10:09:38.762Z,994.67
2022-11-23T10:10:38.735Z,995.09
2022-11-23T10:11:38.696Z,995.05
2022-11-23T10:12:40.153Z,994.91
2022-11-23T10:13:38.606Z,994.99
2022-11-23T10:14:38.573Z,994.65
2022-11-23T10:15:38.543Z,994.95
2022-11-23T10:16:38.492Z,994.58
2022-11-23T10:17:38.466Z,994.57
2022-11-23T10:18:38.416Z,994.59
2022-11-23T10:19:38.381Z,994.60
2022-11-23T10:20:38.354Z,994.56
2022-11-23T10:21:38.312Z,994.64
2022-11-23T10:22:38.262Z,994.63
2022-11-23T10:23:38.233Z,994.96
2022-11-23T10:24:38.194Z,994.42
2022-11-23T10:25:39.436Z,994.49
2022-11-23T10:26:38.108Z,994.46
2022-11-23T10:27:38.083Z,994.79
2022-11-23T10:28:38.042Z,994.68
2022-11-23T10:29:37.994Z,994.78
2022-11-23T10:30:38.094Z,994.81
2022-11-23T10:31:37.915Z,994.40
2022-11-23T10:32:37.893Z,994.43
2022-11-23T10:33:37.838Z,994.38
2022-11-23T10:34:37.803Z,994.46
2022-11-23T10:35:37.761Z,994.39
2022-11-23T10:36:37.723Z,994.38
2022-11-23T10:37:37.681Z,994.33
2022-11-23T10:38:37.662Z,994.26
2022-11-23T10:39:37.610Z,994.26
2022-11-23T10:40:37.566Z,994.23
2022-11-23T10:41:37.522Z,994.11
2022-11-23T10:42:37.490Z,994.25
2022-11-23T10:43:37.450Z,994.63
2022-11-23T10:44:37.416Z,994.55
2022-11-23T10:45:37.365Z,994.58
2022-11-23T10:46:37.353Z,994.19
2022-11-23T10:47:37.283Z,994.18
2022-11-23T10:48:37.246Z,994.30
2022-11-23T10:49:37.230Z,994.04
2022-11-23T10:50:37.172Z,994.32
2022-11-23T10:51:37.125Z,994.17
2022-11-23T10:52:37.089Z,993.95
2022-11-23T10:53:37.044Z,994.39
2022-11-23T10:54:37.149Z,994.38
2022-11-23T10:55:36.962Z,994.38
2022-11-23T10:56:36.928Z,994.00
2022-11-23T10:57:36.882Z,993.98
2022-11-23T10:58:36.850Z,994.57
2022-11-23T10:59:36.803Z,994.09
2022-11-23T11:00:36.781Z,994.03
2022-11-23T11:01:36.744Z,994.05
2022-11-23T11:02:36.686Z,994.05
2022-11-23T11:03:36.636Z,994.07
2022-11-23T11:04:36.605Z,994.00
2022-11-23T11:06:36.539Z,994.06
2022-11-23T11:07:36.509Z,993.98
2022-11-23T11:08:36.458Z,994.28
2022-11-23T11:09:36.403Z,994.31
2022-11-23T11:10:36.375Z,993.94
2022-11-23T11:11:36.323Z,993.88
2022-11-23T11:12:36.300Z,994.22
2022-11-23T11:13:36.246Z,993.86
2022-11-23T11:14:42.944Z,993.83
2022-11-23T11:15:42.488Z,993.88
2022-11-23T11:16:36.130Z,993.87
2022-11-23T11:17:36.104Z,994.13
2022-11-23T11:18:36.053Z,993.84
2022-11-23T11:19:36.012Z,993.77
2022-11-23T11:20:35.974Z,993.96
2022-11-23T11:21:35.933Z,994.06
2022-11-23T11:22:35.912Z,993.99
2022-11-23T11:23:35.869Z,993.62
2022-11-23T11:24:36.073Z,993.63
2022-11-23T11:25:35.793Z,993.62
2022-11-23T11:26:35.740Z,993.64
2022-11-23T11:27:35.699Z,993.64
2022-11-23T11:28:35.675Z,993.55
2022-11-23T11:29:38.999Z,993.42
2022-11-23T11:30:35.589Z,993.48
2022-11-23T11:31:35.540Z,993.59
2022-11-23T11:32:35.506Z,993.50
2022-11-23T11:33:36.596Z,993.46
2022-11-23T11:34:35.653Z,993.83
2022-11-23T11:35:35.403Z,993.44
2022-11-23T11:36:35.359Z,993.61
2022-11-23T11:37:35.307Z,993.72
2022-11-23T11:38:35.276Z,993.40
2022-11-23T11:39:35.242Z,993.27
2022-11-23T11:40:35.194Z,993.40
2022-11-23T11:41:35.158Z,993.39
2022-11-23T11:42:35.119Z,993.44
2022-11-23T11:43:39.879Z,993.58
2022-11-23T11:44:35.217Z,993.46
2022-11-23T11:45:34.995Z,993.43
2022-11-23T11:46:34.967Z,993.50
2022-11-23T11:47:34.915Z,993.38
2022-11-23T11:48:34.882Z,993.44
2022-11-23T11:49:34.837Z,993.42
2022-11-23T11:50:34.803Z,993.75
2022-11-23T11:51:34.775Z,993.43
2022-11-23T11:52:34.724Z,993.41
2022-11-23T11:53:34.698Z,993.33
2022-11-23T11:54:34.832Z,993.40
2022-11-23T11:55:34.648Z,993.40
2022-11-23T11:56:34.574Z,993.72
2022-11-23T11:57:34.517Z,993.40
2022-11-23T11:58:36.779Z,993.43
2022-11-23T11:59:34.815Z,993.43
2022-11-23T12:00:34.420Z,993.38
2022-11-23T12:01:34.357Z,993.34
2022-11-23T12:02:34.365Z,993.38
2022-11-23T12:03:34.284Z,993.40
2022-11-23T12:04:34.504Z,993.31
2022-11-23T12:05:34.196Z,993.37
2022-11-23T12:06:34.156Z,993.36
2022-11-23T12:07:34.193Z,993.27
2022-11-23T12:08:34.079Z,993.31
2022-11-23T12:09:34.341Z,993.31
2022-11-23T12:10:33.995Z,993.57
2022-11-23T12:11:33.960Z,993.57
2022-11-23T12:12:33.925Z,993.57
2022-11-23T12:13:33.902Z,993.48
2022-11-23T12:14:34.196Z,993.71
2022-11-23T12:15:48.779Z,993.72
2022-11-23T12:16:33.751Z,993.45
2022-11-23T12:17:33.886Z,993.42
2022-11-23T12:18:33.670Z,993.37
2022-11-23T12:19:33.933Z,993.37
2022-11-23T12:20:33.591Z,993.60
2022-11-23T12:21:33.579Z,993.09
2022-11-23T12:22:33.508Z,993.24
2022-11-23T12:23:33.471Z,993.26
2022-11-23T12:24:33.427Z,993.23
2022-11-23T12:25:33.400Z,993.22
2022-11-23T12:26:33.351Z,993.24
2022-11-23T12:27:33.316Z,993.26
2022-11-23T12:28:33.267Z,993.29
2022-11-23T12:29:33.579Z,993.30
2022-11-23T12:30:33.189Z,993.31
2022-11-23T12:31:33.158Z,993.32
2022-11-23T12:32:33.108Z,993.29
2022-11-23T12:33:33.074Z,993.41
2022-11-23T12:34:33.490Z,993.22
2022-11-23T12:35:33.697Z,993.28
2022-11-23T12:36:32.945Z,993.17
2022-11-23T12:37:32.917Z,993.17
2022-11-23T12:38:32.864Z,993.21
2022-11-23T12:39:32.827Z,993.16
2022-11-23T12:40:32.784Z,993.27
2022-11-23T12:41:32.745Z,993.24
2022-11-23T12:42:32.715Z,993.19
2022-11-23T12:43:36.538Z,993.20
2022-11-23T12:44:32.938Z,993.52
2022-11-23T12:45:32.594Z,993.54
2022-11-23T12:46:32.542Z,993.46
2022-11-23T12:47:32.504Z,993.50
2022-11-23T12:48:32.474Z,993.00
2022-11-23T12:49:36.105Z,993.03
2022-11-23T12:50:32.382Z,993.00
2022-11-23T12:51:32.343Z,993.23
2022-11-23T12:52:32.299Z,993.02
2022-11-23T12:53:32.301Z,993.02
2022-11-23T12:54:32.419Z,993.34
2022-11-23T12:55:32.184Z,993.31
2022-11-23T12:56:32.145Z,992.92